createdAt,value
2022-12-03T00:00:12.523Z,11.90
2022-12-03T00:02:41.987Z,8.40
2022-12-03T00:05:10.839Z,11.57
2022-12-03T00:07:38.373Z,16.58
2022-12-03T00:10:07.132Z,10.60
2022-12-03T00:12:34.536Z,9.83
2022-12-03T00:15:01.853Z,12.13
2022-12-03T00:17:30.494Z,11.15
2022-12-03T00:19:57.898Z,18.03
2022-12-03T00:22:25.327Z,14.80
2022-12-03T00:24:53.427Z,12.73
2022-12-03T00:27:21.519Z,14.05
2022-12-03T00:29:49.687Z,17.97
2022-12-03T00:32:17.942Z,11.15
2022-12-03T00:34:45.759Z,11.83
2022-12-03T00:37:13.218Z,14.40
2022-12-03T00:39:41.192Z,10.80
2022-12-03T00:42:08.532Z,10.07
2022-12-03T00:44:35.999Z,11.17
2022-12-03T00:47:04.290Z,12.37
2022-12-03T00:49:31.939Z,17.40
2022-12-03T00:51:59.528Z,10.83
2022-12-03T00:54:31.820Z,11.33
2022-12-03T00:56:59.800Z,14.03
2022-12-03T00:59:27.811Z,9.93
2022-12-03T01:01:55.167Z,12.40
2022-12-03T01:04:23.036Z,15.97
2022-12-03T01:06:50.779Z,12.03
2022-12-03T01:09:18.145Z,11.53
2022-12-03T01:11:45.582Z,10.93
2022-12-03T01:14:18.879Z,9.47
2022-12-03T01:16:46.764Z,9.77
2022-12-03T01:19:16.342Z,10.90
2022-12-03T01:21:46.086Z,10.25
2022-12-03T01:24:15.057Z,9.70
2022-12-03T01:29:10.404Z,8.60
2022-12-03T01:31:56.573Z,7.30
2022-12-03T01:34:24.158Z,7.90
2022-12-03T01:36:52.719Z,9.00
2022-12-03T01:39:20.432Z,8.20
2022-12-03T01:41:49.792Z,6.93
2022-12-03T01:44:22.702Z,8.97
2022-12-03T01:46:51.487Z,8.87
2022-12-03T01:51:50.280Z,8.30
2022-12-03T01:54:21.422Z,8.03
2022-12-03T01:56:49.485Z,6.20
2022-12-03T01:59:19.994Z,7.70
2022-12-03T02:01:47.623Z,11.30
2022-12-03T02:04:18.181Z,10.73
2022-12-03T02:06:46.069Z,8.83
2022-12-03T02:09:14.352Z,6.80
2022-12-03T02:11:47.262Z,9.63
2022-12-03T02:14:19.389Z,8.03
2022-12-03T02:16:47.153Z,7.50
2022-12-03T02:19:27.261Z,7.07
2022-12-03T02:22:01.706Z,6.63
2022-12-03T02:24:49.808Z,7.23
2022-12-03T02:27:17.811Z,7.00
2022-12-03T02:29:46.021Z,7.28
2022-12-03T02:32:13.575Z,6.10
2022-12-03T02:34:44.152Z,5.47
2022-12-03T02:37:20.282Z,6.87
2022-12-03T02:39:53.238Z,6.93
2022-12-03T02:42:37.094Z,6.47
2022-12-03T02:45:14.030Z,5.83
2022-12-03T02:47:49.871Z,7.13
2022-12-03T02:50:22.329Z,9.13
2022-12-03T02:52:52.997Z,6.63
2022-12-03T02:55:21.000Z,7.40
2022-12-03T02:57:50.568Z,8.73
2022-12-03T03:00:18.984Z,7.10
2022-12-03T03:02:47.797Z,8.03
2022-12-03T03:05:16.437Z,5.60
2022-12-03T03:07:44.607Z,5.32
2022-12-03T03:10:15.498Z,7.37
2022-12-03T03:12:43.547Z,7.17
2022-12-03T03:15:11.856Z,7.63
2022-12-03T03:17:40.119Z,5.83
2022-12-03T03:20:09.591Z,7.63
2022-12-03T03:22:42.369Z,8.23
2022-12-03T03:25:13.303Z,8.93
2022-12-03T03:27:41.930Z,8.70
2022-12-03T03:30:11.297Z,8.53
2022-12-03T03:32:39.866Z,7.10
2022-12-03T03:35:09.085Z,7.07
2022-12-03T03:37:36.798Z,6.05
2022-12-03T03:40:04.727Z,9.77
2022-12-03T03:42:32.375Z,7.77
2022-12-03T03:45:00.148Z,8.40
2022-12-03T03:47:27.698Z,13.10
2022-12-03T03:49:55.917Z,13.67
2022-12-03T03:52:23.626Z,15.43
2022-12-03T03:54:51.277Z,20.73
2022-12-03T03:57:19.113Z,21.60
2022-12-03T03:59:46.652Z,21.23
2022-12-03T04:02:20.111Z,13.67
2022-12-03T04:04:49.072Z,10.63
2022-12-03T04:07:17.168Z,8.13
2022-12-03T04:09:45.109Z,8.17
2022-12-03T04:12:31.634Z,8.13
2022-12-03T04:14:59.301Z,20.07
2022-12-03T04:17:27.153Z,16.03
2022-12-03T04:19:54.485Z,10.47
2022-12-03T04:22:40.352Z,14.63
2022-12-03T04:25:28.975Z,20.10
2022-12-03T04:28:14.822Z,10.83
2022-12-03T04:30:42.646Z,12.67
2022-12-03T04:33:28.880Z,18.50
2022-12-03T04:35:56.639Z,11.17
2022-12-03T04:38:24.110Z,12.17
2022-12-03T04:41:06.882Z,11.20
2022-12-03T04:43:55.260Z,7.83
2022-12-03T04:46:22.820Z,8.43
2022-12-03T04:48:50.492Z,11.30
2022-12-03T04:51:17.816Z,8.03
2022-12-03T04:53:46.423Z,8.37
2022-12-03T04:56:14.208Z,7.62
2022-12-03T04:58:41.439Z,10.40
2022-12-03T05:01:08.966Z,8.33
2022-12-03T05:03:36.857Z,9.07
2022-12-03T05:06:04.410Z,7.57
2022-12-03T05:08:31.790Z,7.23
2022-12-03T05:10:59.740Z,8.13
2022-12-03T05:13:27.147Z,7.93
2022-12-03T05:15:54.537Z,8.80
2022-12-03T05:18:22.421Z,8.10
2022-12-03T05:20:53.162Z,7.57
2022-12-03T05:23:21.454Z,7.73
2022-12-03T05:25:49.168Z,7.53
2022-12-03T05:28:17.692Z,6.37
2022-12-03T05:30:45.128Z,9.07
2022-12-03T05:33:13.311Z,9.93
2022-12-03T05:35:41.837Z,9.10
2022-12-03T05:38:09.282Z,7.63
2022-12-03T05:40:37.555Z,7.63
2022-12-03T05:43:05.383Z,9.17
2022-12-03T05:45:39.178Z,9.20
2022-12-03T05:48:10.026Z,8.93
2022-12-03T05:50:39.697Z,9.33
2022-12-03T05:53:15.690Z,9.17
2022-12-03T05:55:43.126Z,8.60
2022-12-03T05:58:10.586Z,9.03
2022-12-03T06:00:42.865Z,8.67
2022-12-03T06:03:11.446Z,9.20
2022-12-03T06:05:39.011Z,9.97
2022-12-03T06:08:06.501Z,8.90
2022-12-03T06:10:34.245Z,9.20
2022-12-03T06:13:02.377Z,8.93
2022-12-03T06:15:29.951Z,9.75
2022-12-03T06:17:57.680Z,9.37
2022-12-03T06:20:25.057Z,7.13
2022-12-03T06:22:52.564Z,10.20
2022-12-03T06:25:20.217Z,8.20
2022-12-03T06:27:47.609Z,9.60
2022-12-03T06:30:15.112Z,8.97
2022-12-03T06:32:42.775Z,8.13
2022-12-03T06:35:10.122Z,8.57
2022-12-03T06:37:37.522Z,8.97
2022-12-03T06:40:05.811Z,8.87
2022-12-03T06:42:33.151Z,10.37
2022-12-03T06:45:00.469Z,8.20
2022-12-03T06:47:30.548Z,12.20
2022-12-03T06:49:57.963Z,7.20
2022-12-03T06:52:25.411Z,9.67
2022-12-03T06:54:53.313Z,11.10
2022-12-03T06:57:20.897Z,16.87
2022-12-03T06:59:48.209Z,13.93
2022-12-03T07:02:16.000Z,15.43
2022-12-03T07:04:46.234Z,24.40
2022-12-03T07:07:14.744Z,21.27
2022-12-03T07:09:42.406Z,16.10
2022-12-03T07:12:09.752Z,27.93
2022-12-03T07:14:37.145Z,21.73
2022-12-03T07:17:04.833Z,28.20
2022-12-03T07:19:33.179Z,20.13
2022-12-03T07:22:01.194Z,21.97
2022-12-03T07:24:29.200Z,13.97
2022-12-03T07:26:56.744Z,23.70
2022-12-03T07:29:24.911Z,13.30
2022-12-03T07:31:53.012Z,14.77
2022-12-03T07:34:20.382Z,13.77
2022-12-03T07:36:47.942Z,18.27
2022-12-03T07:39:15.976Z,18.03
2022-12-03T07:41:43.308Z,17.33
2022-12-03T07:44:14.194Z,30.83
2022-12-03T07:46:43.040Z,68.27
2022-12-03T07:49:12.267Z,62.43
2022-12-03T07:54:07.400Z,19.33
2022-12-03T07:56:34.831Z,21.80
2022-12-03T07:59:02.265Z,16.13
2022-12-03T08:01:30.081Z,18.50
2022-12-03T08:03:58.199Z,17.60
2022-12-03T08:06:26.249Z,14.77
2022-12-03T08:08:53.573Z,16.20
2022-12-03T08:11:21.424Z,19.20
2022-12-03T08:13:49.001Z,21.63
2022-12-03T08:16:19.073Z,16.83
2022-12-03T08:18:48.367Z,13.63
2022-12-03T08:21:18.173Z,14.85
2022-12-03T08:23:46.057Z,16.07
2022-12-03T08:26:28.178Z,19.23
2022-12-03T08:28:55.581Z,37.53
2022-12-03T08:31:32.821Z,17.83
2022-12-03T08:34:22.847Z,15.60
2022-12-03T08:37:05.981Z,19.77
2022-12-03T08:39:35.279Z,18.47
2022-12-03T08:42:42.930Z,22.50
2022-12-03T08:45:22.173Z,20.50
2022-12-03T08:47:49.855Z,15.57
2022-12-03T08:50:38.616Z,16.00
2022-12-03T08:55:56.312Z,11.73
2022-12-03T08:58:28.969Z,11.23
2022-12-03T09:01:11.650Z,16.13
2022-12-03T09:03:54.723Z,16.00
2022-12-03T09:06:22.943Z,14.37
2022-12-03T09:08:51.118Z,12.35
2022-12-03T09:11:18.505Z,12.87
2022-12-03T09:13:45.986Z,18.10
2022-12-03T09:16:13.738Z,13.73
2022-12-03T09:18:41.479Z,20.90
2022-12-03T09:21:08.990Z,17.53
2022-12-03T09:23:37.064Z,15.93
2022-12-03T09:26:04.792Z,17.73
2022-12-03T09:28:32.257Z,16.80
2022-12-03T09:31:00.041Z,17.87
2022-12-03T09:33:27.478Z,13.00
2022-12-03T09:35:54.841Z,17.57
2022-12-03T09:38:22.525Z,13.43
2022-12-03T09:40:49.968Z,11.90
2022-12-03T09:43:17.894Z,17.33
2022-12-03T09:45:46.903Z,16.30
2022-12-03T09:48:17.183Z,13.75
2022-12-03T09:50:45.679Z,9.87
2022-12-03T09:53:21.196Z,11.73
2022-12-03T09:55:49.515Z,11.60
2022-12-03T09:58:19.397Z,25.25
2022-12-03T10:00:51.862Z,23.77
2022-12-03T10:03:29.545Z,12.63
2022-12-03T10:05:58.020Z,14.97
2022-12-03T10:08:31.981Z,14.57
2022-12-03T10:10:59.825Z,15.17
2022-12-03T10:13:32.339Z,14.33
2022-12-03T10:16:01.130Z,14.27
2022-12-03T10:18:34.460Z,13.32
2022-12-03T10:21:04.383Z,12.60
2022-12-03T10:23:33.329Z,14.87
2022-12-03T10:26:06.174Z,17.25
2022-12-03T10:28:36.986Z,14.93
2022-12-03T10:31:08.412Z,14.13
2022-12-03T10:33:39.153Z,10.83
2022-12-03T10:36:19.009Z,10.60
2022-12-03T10:38:47.559Z,11.57
2022-12-03T10:41:26.776Z,14.03
2022-12-03T10:43:54.746Z,13.60
2022-12-03T10:46:23.339Z,11.63
2022-12-03T10:49:11.358Z,8.85
2022-12-03T10:51:39.654Z,10.02
2022-12-03T10:54:16.046Z,10.83
2022-12-03T10:56:44.600Z,11.17
2022-12-03T10:59:19.169Z,10.27
2022-12-03T11:01:47.830Z,11.93
2022-12-03T11:04:36.349Z,16.92
2022-12-03T11:07:14.297Z,11.57
2022-12-03T11:09:45.008Z,14.57
2022-12-03T11:12:24.880Z,9.97
2022-12-03T11:14:54.124Z,8.47
2022-12-03T11:17:43.273Z,10.97
2022-12-03T11:20:33.501Z,10.70
2022-12-03T11:23:01.727Z,10.93
2022-12-03T11:25:29.213Z,12.93
2022-12-03T11:28:12.093Z,9.80
2022-12-03T11:30:51.998Z,9.93
2022-12-03T11:33:31.362Z,13.67
2022-12-03T11:36:08.167Z,11.27
2022-12-03T11:38:38.563Z,17.93
2022-12-03T11:41:35.037Z,17.90
2022-12-03T11:44:29.942Z,18.27
2022-12-03T11:46:59.550Z,17.77
2022-12-03T11:52:31.347Z,20.37
2022-12-03T11:55:03.153Z,18.30
2022-12-03T11:57:37.387Z,12.50
2022-12-03T12:00:19.949Z,18.67
2022-12-03T12:02:49.428Z,13.97
2022-12-03T12:05:28.164Z,12.63
2022-12-03T12:07:57.265Z,14.10
2022-12-03T12:13:30.752Z,16.57
2022-12-03T12:16:03.089Z,15.53
2022-12-03T12:18:44.215Z,16.73
2022-12-03T12:21:42.842Z,18.47
2022-12-03T12:26:58.786Z,18.27
2022-12-03T12:29:28.071Z,22.70
2022-12-03T12:32:15.248Z,31.00
2022-12-03T12:34:42.858Z,18.20
2022-12-03T12:37:23.234Z,35.97
2022-12-03T12:39:54.820Z,19.97
2022-12-03T12:42:30.347Z,19.03
2022-12-03T12:45:12.170Z,19.67
2022-12-03T12:47:42.873Z,17.37
2022-12-03T12:50:11.987Z,21.67
2022-12-03T12:53:10.597Z,18.40
2022-12-03T12:55:39.923Z,20.33
2022-12-03T12:58:19.364Z,16.15
2022-12-03T13:00:51.384Z,22.60
2022-12-03T13:03:20.856Z,18.27
2022-12-03T13:05:50.081Z,22.77
2022-12-03T13:08:28.253Z,22.90
2022-12-03T13:11:01.326Z,24.30
2022-12-03T13:13:32.134Z,20.20
2022-12-03T13:16:01.666Z,21.30
2022-12-03T13:18:39.453Z,18.20
2022-12-03T13:21:15.631Z,19.83
2022-12-03T13:23:43.944Z,19.03
2022-12-03T13:26:34.661Z,20.20
2022-12-03T13:29:16.650Z,20.63
2022-12-03T13:32:05.536Z,20.83
2022-12-03T13:34:34.168Z,18.27
2022-12-03T13:37:02.937Z,16.20
2022-12-03T13:39:41.239Z,21.08
2022-12-03T13:42:42.466Z,18.13
2022-12-03T13:45:19.181Z,17.53
2022-12-03T13:47:49.544Z,18.67
2022-12-03T13:50:45.155Z,18.53
2022-12-03T13:53:27.405Z,23.80
2022-12-03T13:56:03.653Z,24.13
2022-12-03T13:58:31.352Z,25.17
2022-12-03T14:00:58.850Z,25.10
2022-12-03T14:03:26.602Z,22.30
2022-12-03T14:05:54.007Z,24.10
2022-12-03T14:08:21.398Z,24.00
2022-12-03T14:10:49.077Z,24.50
2022-12-03T14:13:16.335Z,28.40
2022-12-03T14:15:43.677Z,21.10
2022-12-03T14:18:11.478Z,22.17
2022-12-03T14:20:39.173Z,18.70
2022-12-03T14:23:06.459Z,21.60
2022-12-03T14:25:34.204Z,19.70
2022-12-03T14:28:01.663Z,23.60
2022-12-03T14:30:30.696Z,16.37
2022-12-03T14:32:58.699Z,18.40
2022-12-03T14:35:26.212Z,19.23
2022-12-03T14:37:53.618Z,17.97
2022-12-03T14:40:22.092Z,19.50
2022-12-03T14:42:49.823Z,18.98
2022-12-03T14:45:17.094Z,21.70
2022-12-03T14:47:44.672Z,24.77
2022-12-03T14:50:14.557Z,25.90
2022-12-03T14:52:43.507Z,58.67
2022-12-03T14:55:11.242Z,66.45
2022-12-03T14:57:39.782Z,31.87
2022-12-03T15:02:39.709Z,27.27
2022-12-03T15:05:07.708Z,52.07
2022-12-03T15:07:35.268Z,33.63
2022-12-03T15:10:03.272Z,25.37
2022-12-03T15:12:31.744Z,25.87
2022-12-03T15:14:59.584Z,45.97
2022-12-03T15:17:31.649Z,29.90
2022-12-03T15:19:59.650Z,27.67
2022-12-03T15:22:27.375Z,89.87
2022-12-03T15:24:55.137Z,61.67
2022-12-03T15:27:22.636Z,31.77
2022-12-03T15:29:51.105Z,26.37
2022-12-03T15:32:19.177Z,20.05
2022-12-03T15:34:46.607Z,27.63
2022-12-03T15:37:15.077Z,33.97
2022-12-03T15:39:48.169Z,23.50
2022-12-03T15:42:16.509Z,20.20
2022-12-03T15:44:46.284Z,20.67
2022-12-03T15:47:13.640Z,34.37
2022-12-03T15:49:41.370Z,19.97
2022-12-03T15:52:08.731Z,24.40
2022-12-03T15:54:36.101Z,20.40
2022-12-03T15:57:05.091Z,22.13
2022-12-03T15:59:32.621Z,20.20
2022-12-03T16:02:00.188Z,23.37
2022-12-03T16:04:27.936Z,24.00
2022-12-03T16:06:55.296Z,21.40
2022-12-03T16:09:27.130Z,30.23
2022-12-03T16:11:55.606Z,22.23
2022-12-03T16:14:23.013Z,27.10
2022-12-03T16:16:50.464Z,27.93
2022-12-03T16:19:18.396Z,24.00
2022-12-03T16:21:45.714Z,20.10
2022-12-03T16:24:13.503Z,27.27
2022-12-03T16:26:41.345Z,23.27
2022-12-03T16:29:08.943Z,22.97
2022-12-03T16:31:36.914Z,26.33
2022-12-03T16:34:06.296Z,23.03
2022-12-03T16:36:33.973Z,24.83
2022-12-03T16:39:01.412Z,32.43
2022-12-03T16:41:29.251Z,26.23
2022-12-03T16:43:56.772Z,25.13
2022-12-03T16:46:27.023Z,21.90
2022-12-03T16:48:58.080Z,17.73
2022-12-03T16:51:27.360Z,23.10
2022-12-03T16:53:55.189Z,20.30
2022-12-03T16:56:22.674Z,18.57
2022-12-03T16:58:50.106Z,18.70
2022-12-03T17:01:18.677Z,20.87
2022-12-03T17:03:46.067Z,20.65
2022-12-03T17:06:13.485Z,17.93
2022-12-03T17:08:47.276Z,18.77
2022-12-03T17:11:16.684Z,17.80
2022-12-03T17:13:49.073Z,17.92
2022-12-03T17:16:19.283Z,16.37
2022-12-03T17:18:47.989Z,21.62
2022-12-03T17:21:15.366Z,16.90
2022-12-03T17:23:43.417Z,23.63
2022-12-03T17:26:11.557Z,21.23
2022-12-03T17:28:38.852Z,28.23
2022-12-03T17:31:07.030Z,45.57
2022-12-03T17:33:35.321Z,29.92
2022-12-03T17:36:02.825Z,33.67
2022-12-03T17:38:37.171Z,30.97
2022-12-03T17:41:07.685Z,24.70
2022-12-03T17:43:35.102Z,25.20
2022-12-03T17:46:02.663Z,22.83
2022-12-03T17:48:31.504Z,21.97
2022-12-03T17:51:01.629Z,20.80
2022-12-03T17:53:32.268Z,28.57
2022-12-03T17:55:59.616Z,24.20
2022-12-03T17:58:27.869Z,21.57
2022-12-03T18:01:01.775Z,22.20
2022-12-03T18:03:31.789Z,20.37
2022-12-03T18:05:59.475Z,22.97
2022-12-03T18:08:27.213Z,23.07
2022-12-03T18:10:55.480Z,19.27
2022-12-03T18:13:22.823Z,19.20
2022-12-03T18:15:51.367Z,22.02
2022-12-03T18:18:19.208Z,19.37
2022-12-03T18:20:46.721Z,27.90
2022-12-03T18:23:14.112Z,22.77
2022-12-03T18:25:42.789Z,22.40
2022-12-03T18:28:10.520Z,24.40
2022-12-03T18:30:39.663Z,23.27
2022-12-03T18:33:08.603Z,18.43
2022-12-03T18:35:36.184Z,17.33
2022-12-03T18:38:03.710Z,22.03
2022-12-03T18:40:31.446Z,18.50
2022-12-03T18:42:59.200Z,16.27
2022-12-03T18:45:26.569Z,19.37
2022-12-03T18:47:55.369Z,16.27
2022-12-03T18:50:22.777Z,17.80
2022-12-03T18:52:50.221Z,15.17
2022-12-03T18:55:19.691Z,17.27
2022-12-03T18:57:47.517Z,15.88
2022-12-03T19:00:16.269Z,12.48
2022-12-03T19:05:34.088Z,13.57
2022-12-03T19:08:02.290Z,14.67
2022-12-03T19:10:30.298Z,16.63
2022-12-03T19:12:57.854Z,17.97
2022-12-03T19:15:25.653Z,12.90
2022-12-03T19:17:53.041Z,17.03
2022-12-03T19:20:20.899Z,18.87
2022-12-03T19:22:48.664Z,16.83
2022-12-03T19:25:16.142Z,19.80
2022-12-03T19:27:43.740Z,15.30
2022-12-03T19:30:12.314Z,12.83
2022-12-03T19:32:39.870Z,17.50
2022-12-03T19:35:08.036Z,20.80
2022-12-03T19:37:35.717Z,22.83
2022-12-03T19:40:03.305Z,25.87
2022-12-03T19:42:31.368Z,17.63
2022-12-03T19:44:59.123Z,19.00
2022-12-03T19:47:26.594Z,11.93
2022-12-03T19:49:54.267Z,14.53
2022-12-03T19:52:22.177Z,12.73
2022-12-03T19:54:49.717Z,14.13
2022-12-03T19:57:23.061Z,16.90
2022-12-03T19:59:51.675Z,16.87
2022-12-03T20:02:19.356Z,16.40
2022-12-03T20:04:47.233Z,14.53
2022-12-03T20:07:14.883Z,10.17
2022-12-03T20:09:42.354Z,12.97
2022-12-03T20:12:10.058Z,9.97
2022-12-03T20:14:37.475Z,9.97
2022-12-03T20:17:04.929Z,25.43
2022-12-03T20:19:32.763Z,16.40
2022-12-03T20:22:02.839Z,17.73
2022-12-03T20:24:31.162Z,10.50
2022-12-03T20:26:59.593Z,22.40
2022-12-03T20:29:26.945Z,10.60
2022-12-03T20:31:54.439Z,11.63
2022-12-03T20:34:22.393Z,9.00
2022-12-03T20:36:49.798Z,29.03
2022-12-03T20:39:17.146Z,11.23
2022-12-03T20:41:44.968Z,21.53
2022-12-03T20:44:14.153Z,22.10
2022-12-03T20:46:41.772Z,36.27
2022-12-03T20:49:09.637Z,13.37
2022-12-03T20:51:37.034Z,16.00
2022-12-03T20:54:04.509Z,9.23
2022-12-03T20:56:35.887Z,48.77
2022-12-03T20:59:06.606Z,21.37
2022-12-03T21:01:36.447Z,24.37
2022-12-03T21:04:05.930Z,35.80
2022-12-03T21:06:36.077Z,27.10
2022-12-03T21:09:06.508Z,32.97
2022-12-03T21:11:36.156Z,17.97
2022-12-03T21:14:04.343Z,25.47
2022-12-03T21:17:06.094Z,14.53
2022-12-03T21:19:23.194Z,9.63
2022-12-03T21:21:50.557Z,6.97
2022-12-03T21:24:17.922Z,8.43
2022-12-03T21:26:45.793Z,6.20
2022-12-03T21:29:13.229Z,5.13
2022-12-03T21:31:42.566Z,6.50
2022-12-03T21:34:10.542Z,4.87
2022-12-03T21:36:38.295Z,8.07
2022-12-03T21:39:06.740Z,6.47
2022-12-03T21:41:35.714Z,8.02
2022-12-03T21:44:03.510Z,7.10
2022-12-03T21:47:11.220Z,7.53
2022-12-03T21:49:20.480Z,9.07
2022-12-03T21:51:47.921Z,7.25
2022-12-03T21:54:17.063Z,6.33
2022-12-03T21:56:44.930Z,8.43
2022-12-03T21:59:12.301Z,6.77
2022-12-03T22:01:42.923Z,7.90
2022-12-03T22:04:13.413Z,5.30
2022-12-03T22:06:40.934Z,8.40
2022-12-03T22:09:08.384Z,6.00
2022-12-03T22:11:36.239Z,8.87
2022-12-03T22:14:04.954Z,8.67
2022-12-03T22:16:32.639Z,7.50
2022-12-03T22:19:00.566Z,12.43
2022-12-03T22:21:27.916Z,6.47
2022-12-03T22:23:56.479Z,6.87
2022-12-03T22:26:24.233Z,4.47
2022-12-03T22:28:51.691Z,6.20
2022-12-03T22:31:19.290Z,9.53
2022-12-03T22:33:48.603Z,10.67
2022-12-03T22:36:20.912Z,5.93
2022-12-03T22:38:51.045Z,5.57
2022-12-03T22:41:19.496Z,6.97
2022-12-03T22:43:47.322Z,5.85
2022-12-03T22:46:16.223Z,7.63
2022-12-03T22:48:45.609Z,8.75
2022-12-03T22:51:15.979Z,16.27
2022-12-03T22:53:44.013Z,6.80
2022-12-03T22:56:11.951Z,9.73
2022-12-03T22:58:40.618Z,8.13
2022-12-03T23:01:08.406Z,7.32
2022-12-03T23:03:37.227Z,9.57
2022-12-03T23:06:11.773Z,8.02
2022-12-03T23:08:39.915Z,7.73
2022-12-03T23:11:08.263Z,6.37
2022-12-03T23:13:36.043Z,6.50
2022-12-03T23:16:04.449Z,14.20
2022-12-03T23:18:32.138Z,10.37
2022-12-03T23:20:59.694Z,5.63
2022-12-03T23:23:28.627Z,6.47
2022-12-03T23:25:57.780Z,7.95
2022-12-03T23:28:25.764Z,8.55
2022-12-03T23:30:53.677Z,7.00
2022-12-03T23:33:21.623Z,5.93
2022-12-03T23:35:49.374Z,7.73
2022-12-03T23:38:17.374Z,6.47
2022-12-03T23:40:48.087Z,4.90
2022-12-03T23:43:16.492Z,6.23
2022-12-03T23:45:44.127Z,5.90
2022-12-03T23:48:11.481Z,5.23
2022-12-03T23:50:41.493Z,9.10
2022-12-03T23:53:09.323Z,7.10
2022-12-03T23:55:40.029Z,6.33
2022-12-03T23:58:07.691Z,6.43
